Time;durP1;ratioP1;P1;durP2;ratioP2;P2;SDS_P1;SDS_P2;PMS_P1;PMS_P2;Temp;Humidity;BMP_temperature;BMP_pressure;BME280_temperature;BME280_humidity;BME280_pressure;Samples;Min_cycle;Max_cycle;Signal;HPM_P1;HPM_P2
2023/05/24 00:00:11;;;;;;;8.63;7.80;;;;;;;14.41;100.00;95940.03;5121136;27;20031;-68
2023/05/24 00:02:40;;;;;;;10.10;8.20;;;;;;;14.39;100.00;95936.72;5126544;27;20476;-69
2023/05/24 00:05:08;;;;;;;8.70;7.75;;;;;;;14.41;100.00;95932.94;5123350;27;20026;-69
2023/05/24 00:07:34;;;;;;;10.93;7.50;;;;;;;14.37;100.00;95941.34;5121234;27;20011;-68
2023/05/24 00:09:59;;;;;;;7.85;7.15;;;;;;;14.33;100.00;95938.19;5131644;27;20023;-69
2023/05/24 00:12:24;;;;;;;10.88;7.35;;;;;;;14.40;100.00;95947.16;5117242;27;20020;-69
2023/05/24 00:14:50;;;;;;;12.88;7.30;;;;;;;14.41;100.00;95948.81;5116289;27;20487;-69
2023/05/24 00:17:16;;;;;;;7.57;6.97;;;;;;;14.42;100.00;95953.13;5117246;27;20016;-69
2023/05/24 00:19:41;;;;;;;9.30;7.75;;;;;;;14.43;100.00;95951.31;5119166;27;20027;-68
2023/05/24 00:22:06;;;;;;;13.93;8.20;;;;;;;14.42;100.00;95939.03;5118491;27;20034;-69
2023/05/24 00:24:32;;;;;;;11.90;7.30;;;;;;;14.39;100.00;95934.06;5124666;27;20039;-69
2023/05/24 00:26:57;;;;;;;7.80;7.20;;;;;;;14.41;100.00;95940.88;5127011;27;20102;-69
2023/05/24 00:29:23;;;;;;;7.93;6.72;;;;;;;14.40;100.00;95941.88;5122435;27;20604;-69
2023/05/24 00:31:48;;;;;;;8.85;8.05;;;;;;;14.33;100.00;95944.31;5124891;27;20068;-69
2023/05/24 00:34:14;;;;;;;7.78;7.18;;;;;;;14.37;100.00;95936.91;5125027;27;20023;-69
2023/05/24 00:36:39;;;;;;;7.50;6.90;;;;;;;14.32;100.00;95932.06;5132991;27;20054;-68
2023/05/24 00:39:04;;;;;;;7.38;6.72;;;;;;;14.26;100.00;95931.88;5102321;28;20067;-68
2023/05/24 00:41:30;;;;;;;8.50;6.72;;;;;;;14.23;100.00;95935.66;5121390;27;20103;-68
2023/05/24 00:43:55;;;;;;;10.27;6.43;;;;;;;14.22;100.00;95947.25;5132666;27;20160;-69
2023/05/24 00:46:28;;;;;;;7.45;6.75;;;;;;;14.19;100.00;95947.56;5117995;27;20701;-69
2023/05/24 00:48:53;;;;;;;8.15;7.35;;;;;;;14.11;100.00;95943.06;5122856;27;20682;-68
2023/05/24 00:51:19;;;;;;;7.55;6.95;;;;;;;14.07;100.00;95938.25;5124793;27;20062;-68
2023/05/24 00:53:47;;;;;;;7.68;6.85;;;;;;;14.14;100.00;95941.91;5127847;27;20046;-68
2023/05/24 00:56:13;;;;;;;8.05;7.32;;;;;;;14.11;100.00;95937.75;5127013;27;20019;-68
2023/05/24 00:58:39;;;;;;;7.82;7.22;;;;;;;14.12;100.00;95928.00;5118523;27;20047;-68
2023/05/24 01:01:05;;;;;;;7.97;7.35;;;;;;;14.14;100.00;95933.97;5117491;27;20018;-68
2023/05/24 01:03:32;;;;;;;7.43;6.82;;;;;;;14.16;100.00;95937.28;5120261;27;20110;-68
2023/05/24 01:06:02;;;;;;;8.02;7.43;;;;;;;14.17;100.00;95938.94;5118232;27;20752;-68
2023/05/24 01:08:33;;;;;;;7.90;7.20;;;;;;;14.12;100.00;95943.91;5120840;27;20041;-69
2023/05/24 01:11:05;;;;;;;7.90;7.18;;;;;;;14.13;100.00;95943.72;5120525;27;20061;-68
2023/05/24 01:13:43;;;;;;;7.93;7.03;;;;;;;14.16;100.00;95939.94;5122768;27;20498;-68
2023/05/24 01:16:08;;;;;;;11.45;7.82;;;;;;;14.17;100.00;95936.31;5127729;27;20093;-68
2023/05/24 01:18:40;;;;;;;8.73;7.70;;;;;;;14.21;100.00;95934.19;5130354;27;20049;-68
2023/05/24 01:21:11;;;;;;;9.02;7.97;;;;;;;14.23;100.00;95932.19;5133368;27;20027;-68
2023/05/24 01:23:43;;;;;;;8.95;8.23;;;;;;;14.22;100.00;95938.47;5125943;27;20027;-68
2023/05/24 01:26:25;;;;;;;9.32;8.23;;;;;;;14.16;100.00;95934.63;5117603;27;20077;-68
2023/05/24 01:28:52;;;;;;;11.43;8.65;;;;;;;14.15;100.00;95925.03;5116259;28;20043;-68
2023/05/24 01:31:18;;;;;;;9.15;8.35;;;;;;;14.21;100.00;95929.69;5114711;28;20031;-68
2023/05/24 01:33:44;;;;;;;8.20;7.40;;;;;;;14.20;100.00;95924.56;5125618;27;20023;-68
2023/05/24 01:36:09;;;;;;;8.38;7.72;;;;;;;14.22;100.00;95926.06;5129765;27;20020;-68
2023/05/24 01:38:37;;;;;;;9.23;7.90;;;;;;;14.24;100.00;95918.78;5127146;27;20365;-68
2023/05/24 01:41:20;;;;;;;8.55;7.85;;;;;;;14.16;100.00;95924.91;5125014;27;20484;-68
2023/05/24 01:44:04;;;;;;;9.45;8.48;;;;;;;14.15;100.00;95927.69;5133323;27;20491;-67
2023/05/24 01:46:37;;;;;;;8.98;8.05;;;;;;;14.14;100.00;95923.38;5131513;27;20055;-67
2023/05/24 01:49:19;;;;;;;11.40;8.35;;;;;;;14.13;100.00;95919.06;5119305;28;20106;-68
2023/05/24 01:51:53;;;;;;;9.82;9.02;;;;;;;14.09;100.00;95915.91;5120080;27;20086;-67
2023/05/24 01:54:25;;;;;;;8.18;7.38;;;;;;;14.09;100.00;95915.09;5115409;27;20035;-68
2023/05/24 01:56:53;;;;;;;9.40;8.65;;;;;;;14.14;100.00;95912.78;5128017;28;20016;-67
2023/05/24 01:59:21;;;;;;;8.43;7.82;;;;;;;14.12;100.00;95918.22;5120827;28;20042;-68
2023/05/24 02:01:47;;;;;;;11.82;9.02;;;;;;;14.13;100.00;95911.13;5116370;28;20167;-68
2023/05/24 02:04:12;;;;;;;9.90;8.80;;;;;;;14.10;100.00;95919.41;5114738;28;20027;-67
2023/05/24 02:06:37;;;;;;;8.70;8.10;;;;;;;14.09;100.00;95915.91;5115103;28;20023;-68
2023/05/24 02:09:03;;;;;;;9.85;8.93;;;;;;;14.11;100.00;95910.47;5115564;28;20091;-67
2023/05/24 02:11:28;;;;;;;8.65;7.65;;;;;;;14.16;100.00;95908.16;5117635;28;20026;-67
2023/05/24 02:13:54;;;;;;;8.90;8.18;;;;;;;14.10;100.00;95906.97;5120685;28;20085;-68
2023/05/24 02:16:22;;;;;;;9.82;8.65;;;;;;;14.13;100.00;95906.66;5119330;28;20027;-68
2023/05/24 02:18:49;;;;;;;9.68;8.88;;;;;;;14.23;100.00;95911.81;5128784;28;20395;-67
2023/05/24 02:21:15;;;;;;;10.18;9.00;;;;;;;14.22;100.00;95899.56;5118951;27;20588;-68
2023/05/24 02:23:40;;;;;;;10.50;9.50;;;;;;;14.19;100.00;95897.25;5115953;28;20045;-68
2023/05/24 02:26:06;;;;;;;11.13;9.52;;;;;;;14.15;100.00;95902.06;5118803;28;20026;-68
2023/05/24 02:28:31;;;;;;;10.65;9.63;;;;;;;14.11;100.00;95899.88;5129414;28;20023;-67
2023/05/24 02:30:57;;;;;;;10.25;9.45;;;;;;;14.07;100.00;95899.34;5123751;27;20107;-67
2023/05/24 02:33:25;;;;;;;10.68;9.70;;;;;;;14.04;100.00;95891.72;5115106;28;20019;-68
2023/05/24 02:35:51;;;;;;;11.98;10.82;;;;;;;14.07;100.00;95893.25;5119680;27;20019;-68
2023/05/24 02:38:16;;;;;;;11.60;10.55;;;;;;;14.10;100.00;95890.28;5125841;28;20535;-68
2023/05/24 02:40:42;;;;;;;11.38;10.55;;;;;;;14.10;100.00;95888.44;5115823;28;20022;-67
2023/05/24 02:43:08;;;;;;;11.07;10.00;;;;;;;14.11;100.00;95882.16;5124195;27;20043;-68
2023/05/24 02:45:35;;;;;;;10.88;9.82;;;;;;;14.10;100.00;95882.34;5128806;27;20564;-67
2023/05/24 02:48:00;;;;;;;10.43;9.50;;;;;;;14.06;100.00;95876.53;5123194;27;20530;-68
2023/05/24 02:50:26;;;;;;;10.57;9.60;;;;;;;14.11;100.00;95876.06;5116806;27;20020;-68
2023/05/24 02:52:51;;;;;;;13.80;10.00;;;;;;;14.08;100.00;95866.59;5125255;28;20563;-67
2023/05/24 02:55:17;;;;;;;9.60;8.85;;;;;;;14.07;100.00;95869.44;5100259;28;20106;-68
2023/05/24 02:57:42;;;;;;;9.38;8.55;;;;;;;14.04;100.00;95867.91;5101156;28;20065;-67
2023/05/24 03:00:10;;;;;;;10.55;9.55;;;;;;;14.06;100.00;95867.75;5114844;28;20020;-67
2023/05/24 03:02:37;;;;;;;10.25;9.35;;;;;;;14.01;100.00;95863.75;5116109;28;20058;-67
2023/05/24 03:05:03;;;;;;;10.85;9.90;;;;;;;14.04;100.00;95865.25;5115149;28;20026;-68
2023/05/24 03:07:28;;;;;;;11.05;10.05;;;;;;;14.06;100.00;95873.06;5115036;28;20509;-68
2023/05/24 03:09:54;;;;;;;10.77;9.77;;;;;;;14.04;100.00;95868.75;5130420;27;20612;-68
2023/05/24 03:12:19;;;;;;;10.63;9.73;;;;;;;14.03;100.00;95860.97;5130987;27;20030;-68
2023/05/24 03:14:45;;;;;;;11.98;9.55;;;;;;;14.01;100.00;95861.09;5120068;27;20031;-68
2023/05/24 03:17:10;;;;;;;10.70;9.65;;;;;;;14.01;100.00;95865.59;5128125;27;20016;-67
2023/05/24 03:19:36;;;;;;;10.60;9.68;;;;;;;13.99;100.00;95863.09;5127622;27;20403;-67
2023/05/24 03:22:02;;;;;;;11.38;10.18;;;;;;;13.98;100.00;95861.44;5117881;28;20023;-68
2023/05/24 03:24:27;;;;;;;11.70;10.48;;;;;;;13.99;100.00;95857.78;5128485;27;20432;-68
2023/05/24 03:26:53;;;;;;;11.15;10.15;;;;;;;14.02;100.00;95857.47;5128998;27;20592;-68
2023/05/24 03:29:18;;;;;;;13.10;11.85;;;;;;;14.04;100.00;95863.47;5132388;27;20038;-68
2023/05/24 03:31:43;;;;;;;12.23;11.02;;;;;;;14.07;100.00;95861.47;5126700;27;20038;-67
2023/05/24 03:34:09;;;;;;;12.98;11.57;;;;;;;14.08;100.00;95860.50;5100783;28;20020;-67
2023/05/24 03:36:35;;;;;;;14.48;11.43;;;;;;;14.11;100.00;95868.09;5136411;27;20043;-67
2023/05/24 03:39:03;;;;;;;11.95;10.27;;;;;;;14.14;100.00;95863.31;5135250;27;20031;-67
2023/05/24 03:41:29;;;;;;;12.25;11.05;;;;;;;14.13;100.00;95869.59;5125196;27;20030;-67
2023/05/24 03:43:54;;;;;;;13.38;12.27;;;;;;;14.08;100.00;95866.59;5126143;27;20130;-67
2023/05/24 03:46:19;;;;;;;13.23;11.82;;;;;;;14.06;100.00;95867.75;5124567;27;20111;-68
2023/05/24 03:48:45;;;;;;;12.55;11.45;;;;;;;14.08;100.00;95871.91;5117241;27;20053;-67
2023/05/24 03:51:10;;;;;;;13.50;12.20;;;;;;;14.10;100.00;95869.91;5109426;27;20023;-67
2023/05/24 03:53:36;;;;;;;13.55;12.25;;;;;;;14.09;100.00;95876.19;5133812;27;20050;-67
2023/05/24 03:56:01;;;;;;;13.07;11.73;;;;;;;14.10;100.00;95880.50;5120317;27;20023;-67
2023/05/24 03:58:27;;;;;;;13.52;12.32;;;;;;;14.13;100.00;95876.72;5123674;27;20099;-67
2023/05/24 04:00:52;;;;;;;12.70;11.65;;;;;;;14.13;100.00;95882.81;5125769;27;20030;-67
2023/05/24 04:03:18;;;;;;;12.82;11.55;;;;;;;14.17;100.00;95886.00;5119771;27;20019;-67
2023/05/24 04:05:44;;;;;;;12.13;11.18;;;;;;;14.20;100.00;95884.84;5121263;27;20098;-67
2023/05/24 04:08:11;;;;;;;12.57;11.48;;;;;;;14.18;100.00;95892.94;5107649;28;20108;-67
2023/05/24 04:10:36;;;;;;;13.43;12.13;;;;;;;14.18;100.00;95892.94;5129287;27;20031;-67
2023/05/24 04:13:02;;;;;;;13.93;12.63;;;;;;;14.18;100.00;95892.94;5124869;27;20443;-67
2023/05/24 04:15:27;;;;;;;14.52;13.13;;;;;;;14.18;100.00;95893.78;5132514;27;20031;-66
2023/05/24 04:17:54;;;;;;;14.50;13.05;;;;;;;14.20;100.00;95896.25;5129011;27;20399;-67
2023/05/24 04:20:24;;;;;;;14.43;13.23;;;;;;;14.21;100.00;95903.22;5123552;27;20027;-67
2023/05/24 04:22:50;;;;;;;12.85;11.75;;;;;;;14.22;100.00;95901.41;5120631;27;20028;-66
2023/05/24 04:25:15;;;;;;;13.55;12.23;;;;;;;14.23;100.00;95903.06;5105352;27;20518;-67
2023/05/24 04:27:41;;;;;;;14.18;12.63;;;;;;;14.22;100.00;95902.22;5127312;27;20167;-67
2023/05/24 04:30:08;;;;;;;14.95;13.55;;;;;;;14.22;100.00;95906.72;5126838;27;20035;-67
2023/05/24 04:32:33;;;;;;;15.80;14.35;;;;;;;14.20;100.00;95912.16;5119345;27;20280;-66
2023/05/24 04:35:01;;;;;;;14.57;13.18;;;;;;;14.18;100.00;95908.84;5125613;27;20021;-67
2023/05/24 04:37:28;;;;;;;14.38;12.90;;;;;;;14.16;100.00;95911.66;5120455;27;20019;-66
2023/05/24 04:39:53;;;;;;;15.13;13.52;;;;;;;14.20;100.00;95916.63;5119653;27;20023;-66
2023/05/24 04:42:19;;;;;;;15.48;14.02;;;;;;;14.20;100.00;95917.44;5121948;27;20070;-67
2023/05/24 04:44:44;;;;;;;16.30;13.30;;;;;;;14.17;100.00;95915.13;5132099;27;20031;-66
2023/05/24 04:47:11;;;;;;;14.27;13.07;;;;;;;14.20;100.00;95913.97;5115658;27;20035;-67
2023/05/24 04:49:37;;;;;;;15.98;14.48;;;;;;;14.25;100.00;95922.28;5106915;28;20023;-66
2023/05/24 04:52:03;;;;;;;14.43;13.23;;;;;;;14.26;100.00;95911.53;5120353;27;20537;-66
2023/05/24 04:54:29;;;;;;;15.13;13.55;;;;;;;14.27;100.00;95913.19;5126495;27;20418;-66
2023/05/24 04:56:54;;;;;;;16.90;15.18;;;;;;;14.30;100.00;95914.66;5100869;28;20707;-66
2023/05/24 04:59:20;;;;;;;16.70;14.82;;;;;;;14.25;100.00;95924.91;5127386;27;20027;-66
2023/05/24 05:01:46;;;;;;;17.25;15.60;;;;;;;14.23;100.00;95917.13;5131539;27;20122;-67
2023/05/24 05:04:11;;;;;;;16.73;15.00;;;;;;;14.22;100.00;95917.31;5121509;27;20016;-66
2023/05/24 05:06:39;;;;;;;18.85;17.15;;;;;;;14.22;100.00;95914.66;5120425;27;20547;-67
2023/05/24 05:09:09;;;;;;;17.98;16.40;;;;;;;14.23;100.00;95918.97;5125206;27;20547;-66
2023/05/24 05:11:37;;;;;;;19.77;17.67;;;;;;;14.23;100.00;95917.13;5119400;27;20027;-66
2023/05/24 05:14:03;;;;;;;20.02;17.80;;;;;;;14.21;100.00;95916.44;5116541;27;20031;-66
2023/05/24 05:16:29;;;;;;;19.30;17.60;;;;;;;14.18;100.00;95908.84;5129216;27;20028;-67
2023/05/24 05:18:54;;;;;;;19.85;18.13;;;;;;;14.20;100.00;95917.44;5122811;27;20052;-66
2023/05/24 05:21:20;;;;;;;19.23;17.17;;;;;;;14.18;100.00;95920.28;5129924;27;20027;-66
2023/05/24 05:23:45;;;;;;;17.75;16.30;;;;;;;14.13;100.00;95916.44;5124115;27;20027;-66
2023/05/24 05:26:11;;;;;;;19.95;17.63;;;;;;;14.14;100.00;95923.38;5119114;27;20019;-67
2023/05/24 05:28:36;;;;;;;18.85;16.88;;;;;;;14.12;100.00;95923.53;5124985;27;20024;-66
2023/05/24 05:31:02;;;;;;;18.95;17.25;;;;;;;14.13;100.00;95921.72;5125311;27;20054;-66
2023/05/24 05:33:30;;;;;;;21.13;17.45;;;;;;;14.09;100.00;95926.50;5124737;27;20019;-66
2023/05/24 05:35:55;;;;;;;22.92;18.40;;;;;;;14.11;100.00;95927.16;5132186;27;20422;-66
2023/05/24 05:38:21;;;;;;;17.95;16.38;;;;;;;14.17;100.00;95929.19;5122907;27;20027;-66
2023/05/24 05:40:46;;;;;;;19.13;17.23;;;;;;;14.11;100.00;95929.00;5115070;27;20011;-66
2023/05/24 05:43:12;;;;;;;20.60;18.60;;;;;;;14.13;100.00;95925.19;5129472;27;20027;-66
2023/05/24 05:45:37;;;;;;;19.65;17.77;;;;;;;14.16;100.00;95929.34;5123616;27;20049;-66
2023/05/24 05:48:02;;;;;;;18.58;16.67;;;;;;;14.17;100.00;95926.56;5126289;27;20032;-66
2023/05/24 05:50:28;;;;;;;21.10;19.02;;;;;;;14.17;100.00;95923.06;5115150;27;20027;-66
2023/05/24 05:52:53;;;;;;;19.38;17.58;;;;;;;14.16;100.00;95929.34;5115407;28;20020;-66
2023/05/24 05:55:19;;;;;;;18.77;17.00;;;;;;;14.15;100.00;95919.75;5133599;27;20039;-66
2023/05/24 05:57:44;;;;;;;19.98;18.30;;;;;;;14.16;100.00;95924.91;5102826;28;20019;-67
2023/05/24 06:00:10;;;;;;;18.70;17.00;;;;;;;14.21;100.00;95927.03;5123087;28;20019;-66
2023/05/24 06:02:36;;;;;;;20.25;18.25;;;;;;;14.23;100.00;95924.25;5130018;28;20031;-67
2023/05/24 06:05:02;;;;;;;21.20;17.60;;;;;;;14.24;100.00;95917.97;5114746;27;20479;-67
2023/05/24 06:07:27;;;;;;;17.92;16.38;;;;;;;14.25;100.00;95928.38;5113927;28;20360;-67
2023/05/24 06:09:53;;;;;;;19.38;17.52;;;;;;;14.31;100.00;95919.81;5118476;28;20440;-67
2023/05/24 06:12:18;;;;;;;20.77;18.77;;;;;;;14.32;100.00;95921.47;5122477;27;20026;-66
2023/05/24 06:14:43;;;;;;;19.50;17.90;;;;;;;14.31;100.00;95922.47;5126622;28;20047;-65
2023/05/24 06:17:10;;;;;;;20.23;18.15;;;;;;;14.28;100.00;95927.25;5124437;28;20061;-65
2023/05/24 06:19:35;;;;;;;17.85;16.25;;;;;;;14.33;100.00;95917.00;5123084;28;20020;-66
2023/05/24 06:22:00;;;;;;;18.15;16.55;;;;;;;14.33;100.00;95915.19;5120966;28;20084;-67
2023/05/24 06:24:27;;;;;;;17.15;15.73;;;;;;;14.43;100.00;95919.50;5127802;27;20019;-67
2023/05/24 06:26:53;;;;;;;18.45;16.85;;;;;;;14.43;100.00;95920.34;5122473;28;20026;-66
2023/05/24 06:29:20;;;;;;;19.08;17.38;;;;;;;14.49;100.00;95916.25;5118325;27;20073;-67
2023/05/24 06:31:46;;;;;;;18.77;16.77;;;;;;;14.55;100.00;95923.53;5113571;28;20023;-67
2023/05/24 06:34:17;;;;;;;16.63;14.93;;;;;;;14.56;100.00;95917.25;5113465;28;20048;-66
2023/05/24 06:36:46;;;;;;;17.48;16.02;;;;;;;14.58;100.00;95915.25;5114198;28;20027;-67
2023/05/24 06:39:12;;;;;;;18.55;16.83;;;;;;;14.59;100.00;95918.75;5123642;28;20024;-67
2023/05/24 06:41:38;;;;;;;18.30;16.80;;;;;;;14.58;100.00;95915.25;5128663;28;20033;-67
2023/05/24 06:44:04;;;;;;;18.25;16.70;;;;;;;14.64;100.00;95913.78;5140351;27;20084;-67
2023/05/24 06:46:30;;;;;;;17.30;15.65;;;;;;;14.72;100.00;95926.28;5133356;27;20051;-67
2023/05/24 06:48:55;;;;;;;18.27;16.02;;;;;;;14.68;100.00;95916.94;5132147;27;20057;-66
2023/05/24 06:51:21;;;;;;;16.17;14.70;;;;;;;14.68;100.00;95915.13;5129340;27;20023;-66
2023/05/24 06:53:46;;;;;;;16.20;14.80;;;;;;;14.62;100.00;95918.44;5134026;27;20038;-67
2023/05/24 06:56:12;;;;;;;16.95;15.55;;;;;;;14.65;100.00;95917.25;5131222;27;20046;-67
2023/05/24 06:58:37;;;;;;;16.45;15.05;;;;;;;14.71;100.00;95924.63;5119655;27;20068;-66
2023/05/24 07:01:03;;;;;;;17.27;15.57;;;;;;;14.75;100.00;95920.66;5117433;27;20023;-66
2023/05/24 07:03:30;;;;;;;17.02;15.35;;;;;;;14.77;100.00;95921.31;5120338;27;20023;-67
2023/05/24 07:05:56;;;;;;;16.33;14.85;;;;;;;14.83;100.00;95925.94;5119591;27;20015;-66
2023/05/24 07:08:22;;;;;;;15.98;14.68;;;;;;;14.87;100.00;95929.94;5122522;27;20022;-67
2023/05/24 07:10:47;;;;;;;17.02;15.27;;;;;;;14.93;100.00;95930.28;5119394;27;20031;-67
2023/05/24 07:13:13;;;;;;;16.80;15.40;;;;;;;14.96;100.00;95935.25;5117844;27;20027;-67
2023/05/24 07:15:48;;;;;;;17.02;15.55;;;;;;;14.96;100.00;95930.78;5125291;27;20023;-67
2023/05/24 07:18:14;;;;;;;17.20;15.68;;;;;;;14.93;100.00;95940.91;5121520;27;20477;-67
2023/05/24 07:20:39;;;;;;;15.32;13.93;;;;;;;14.93;100.00;95931.09;5118996;27;20047;-68
2023/05/24 07:23:05;;;;;;;16.25;14.40;;;;;;;15.04;100.00;95943.22;5126812;27;20043;-67
2023/05/24 07:25:32;;;;;;;16.00;14.48;;;;;;;15.12;100.00;95943.22;5121842;27;20506;-67
2023/05/24 07:27:57;;;;;;;15.25;13.90;;;;;;;15.12;100.00;95948.53;5131596;27;20568;-67
2023/05/24 07:30:23;;;;;;;15.30;13.88;;;;;;;15.10;100.00;95947.03;5122875;27;20055;-67
2023/05/24 07:32:48;;;;;;;16.63;14.63;;;;;;;15.21;100.00;95941.41;5116522;28;20023;-67
2023/05/24 07:35:15;;;;;;;15.32;14.02;;;;;;;15.21;100.00;95945.91;5117054;27;20057;-67
2023/05/24 07:40:09;;;;;;;17.83;14.52;;;;;;;15.42;100.00;95954.19;5117941;27;20020;-67
2023/05/24 07:42:35;;;;;;;15.10;13.90;;;;;;;15.64;100.00;95954.50;5124037;27;20029;-67
2023/05/24 07:45:01;;;;;;;14.77;13.38;;;;;;;15.76;100.00;95955.00;5129402;27;20051;-67
2023/05/24 07:47:26;;;;;;;17.17;14.55;;;;;;;15.83;100.00;95955.16;5117275;27;20122;-67
2023/05/24 07:49:52;;;;;;;15.68;14.10;;;;;;;15.91;100.00;95957.81;5117607;27;20058;-67
2023/05/24 07:52:17;;;;;;;15.90;14.45;;;;;;;15.87;100.00;95953.81;5135001;27;20019;-67
2023/05/24 07:54:43;;;;;;;16.08;14.23;;;;;;;16.02;100.00;95957.44;5133442;27;20122;-67
2023/05/24 07:57:08;;;;;;;14.75;13.45;;;;;;;16.16;100.00;95957.75;5131150;27;20020;-67
2023/05/24 07:59:34;;;;;;;14.50;13.10;;;;;;;16.28;100.00;95956.41;5130331;27;20019;-67
2023/05/24 08:02:04;;;;;;;15.40;14.07;;;;;;;16.38;100.00;95963.34;5118038;27;20075;-67
2023/05/24 08:04:32;;;;;;;15.57;14.27;;;;;;;16.53;100.00;95956.31;5118271;27;20026;-67
2023/05/24 08:07:00;;;;;;;14.45;12.95;;;;;;;16.69;100.00;95960.72;5106729;27;20091;-67
2023/05/24 08:09:26;;;;;;;13.43;12.32;;;;;;;16.74;100.00;95957.53;5119213;27;20027;-67
2023/05/24 08:11:52;;;;;;;14.82;13.50;;;;;;;16.85;100.00;95953.66;5123424;27;20026;-67
2023/05/24 08:14:17;;;;;;;15.27;12.40;;;;;;;16.93;100.00;95953.59;5123146;27;20020;-67
2023/05/24 08:16:43;;;;;;;12.57;11.57;;;;;;;16.87;100.00;95960.44;5130174;27;20479;-67
2023/05/24 08:19:08;;;;;;;14.13;13.00;;;;;;;16.73;100.00;95951.38;5107075;27;20050;-67
2023/05/24 08:21:34;;;;;;;13.63;12.43;;;;;;;16.74;100.00;95946.91;5130432;27;20065;-67
2023/05/24 08:23:59;;;;;;;11.85;10.88;;;;;;;16.78;100.00;95947.38;5117252;28;20054;-67
2023/05/24 08:26:25;;;;;;;12.75;11.65;;;;;;;16.97;100.00;95952.25;5129652;27;20055;-67
2023/05/24 08:28:51;;;;;;;15.23;12.55;;;;;;;16.88;100.00;95954.13;5127238;27;20209;-67
2023/05/24 08:31:17;;;;;;;12.95;11.68;;;;;;;16.88;100.00;95953.31;5128767;27;20042;-67
2023/05/24 08:33:42;;;;;;;14.40;12.90;;;;;;;16.88;100.00;95947.97;5125800;27;20030;-67
2023/05/24 08:36:08;;;;;;;12.27;11.20;;;;;;;16.86;100.00;95958.78;5125858;27;20022;-67
2023/05/24 08:38:34;;;;;;;12.73;11.57;;;;;;;16.92;100.00;95951.94;5127886;27;20114;-67
2023/05/24 08:41:04;;;;;;;12.05;10.95;;;;;;;17.09;100.00;95957.19;5124440;27;20024;-67
2023/05/24 08:43:29;;;;;;;12.82;11.10;;;;;;;17.10;100.00;95958.84;5132878;27;20436;-67
2023/05/24 08:45:57;;;;;;;11.90;10.77;;;;;;;17.18;100.00;95964.09;5126174;27;20177;-66
2023/05/24 08:48:24;;;;;;;12.20;11.10;;;;;;;17.20;100.00;95955.97;5121304;27;20035;-67
2023/05/24 08:50:50;;;;;;;12.38;11.27;;;;;;;17.15;100.00;95962.66;5121920;27;20396;-67
2023/05/24 08:53:17;;;;;;;11.32;10.35;;;;;;;17.07;100.00;95959.22;5126452;27;20088;-67
2023/05/24 08:55:43;;;;;;;12.35;11.18;;;;;;;17.08;100.00;95963.53;5131351;27;20011;-67
2023/05/24 08:58:10;;;;;;;12.60;11.50;;;;;;;17.25;100.00;95966.91;5122458;27;20024;-67
2023/05/24 09:00:35;;;;;;;12.13;11.00;;;;;;;17.29;100.00;95971.69;5129549;27;20019;-67
2023/05/24 09:03:03;;;;;;;11.77;10.63;;;;;;;17.41;100.00;95971.25;5126663;27;20055;-67
2023/05/24 09:05:29;;;;;;;10.85;10.05;;;;;;;17.39;100.00;95971.47;5132642;27;20051;-67
2023/05/24 09:07:57;;;;;;;10.77;9.90;;;;;;;17.31;100.00;95964.34;5121885;27;20087;-67
2023/05/24 09:10:24;;;;;;;11.73;10.63;;;;;;;17.46;100.00;95976.88;5129705;27;20016;-66
2023/05/24 09:12:56;;;;;;;11.32;10.23;;;;;;;17.50;100.00;95972.03;5126419;27;20019;-67
2023/05/24 09:15:22;;;;;;;11.63;10.63;;;;;;;17.55;100.00;95977.63;5132146;27;20435;-67
2023/05/24 09:17:47;;;;;;;11.68;10.48;;;;;;;17.53;100.00;95972.50;5136063;27;20019;-67
2023/05/24 09:20:13;;;;;;;11.65;10.65;;;;;;;17.75;100.00;95975.31;5117492;27;20080;-66
2023/05/24 09:22:40;;;;;;;13.75;11.90;;;;;;;17.66;100.00;95976.38;5123874;27;20030;-66
2023/05/24 09:25:08;;;;;;;11.77;10.68;;;;;;;17.58;100.00;95982.63;5122598;27;20022;-67
2023/05/24 09:27:35;;;;;;;12.32;11.23;;;;;;;17.63;100.00;95982.91;5123066;27;20480;-67
2023/05/24 09:30:03;;;;;;;12.43;11.25;;;;;;;17.62;100.00;95978.59;5129334;27;20057;-67
2023/05/24 09:32:29;;;;;;;15.50;11.48;;;;;;;17.49;100.00;95981.88;5127339;27;20153;-66
2023/05/24 09:34:57;;;;;;;11.68;10.77;;;;;;;17.40;100.00;95983.75;5114267;28;20020;-66
2023/05/24 09:37:26;;;;;;;10.85;9.90;;;;;;;17.31;100.00;95979.47;5143067;27;20574;-66
2023/05/24 09:39:52;;;;;;;11.45;10.55;;;;;;;17.29;100.00;95984.16;5118606;27;20172;-66
2023/05/24 09:42:26;;;;;;;12.32;11.35;;;;;;;17.38;100.00;95993.75;5117161;27;20023;-66
2023/05/24 09:45:08;;;;;;;12.05;11.05;;;;;;;17.34;100.00;95984.44;5135095;27;20651;-66
2023/05/24 09:47:35;;;;;;;11.68;10.77;;;;;;;17.28;100.00;95983.34;5115842;27;20562;-66
2023/05/24 09:50:05;;;;;;;11.43;10.43;;;;;;;17.14;100.00;95989.41;5119120;28;20103;-66
2023/05/24 09:52:35;;;;;;;12.00;11.00;;;;;;;17.02;100.00;95989.00;5119808;27;20038;-65
2023/05/24 09:55:11;;;;;;;12.23;10.80;;;;;;;16.89;100.00;95998.31;5115228;28;20024;-66
2023/05/24 09:57:36;;;;;;;11.93;10.93;;;;;;;16.85;100.00;96002.31;5112885;28;20035;-66
2023/05/24 10:00:13;;;;;;;11.38;10.40;;;;;;;16.84;100.00;96002.53;5119696;28;20372;-66
2023/05/24 10:02:38;;;;;;;12.23;11.02;;;;;;;16.91;100.00;96003.47;5120464;28;20027;-66
2023/05/24 10:05:04;;;;;;;12.52;11.40;;;;;;;16.94;100.00;96007.63;5118163;28;20397;-66
2023/05/24 10:07:33;;;;;;;12.13;11.15;;;;;;;16.94;100.00;96008.44;5116096;28;20387;-66
2023/05/24 10:10:00;;;;;;;11.82;10.82;;;;;;;17.01;100.00;96008.59;5115040;28;20510;-66
2023/05/24 10:12:26;;;;;;;12.02;10.95;;;;;;;16.99;100.00;96008.75;5126746;28;20639;-66
2023/05/24 10:14:56;;;;;;;12.57;11.48;;;;;;;16.93;100.00;96012.09;5115375;28;20399;-66
2023/05/24 10:17:22;;;;;;;11.93;10.93;;;;;;;16.97;100.00;96002.78;5119031;28;20053;-66
2023/05/24 10:19:47;;;;;;;11.88;10.88;;;;;;;16.97;100.00;96005.44;5136125;27;20083;-66
2023/05/24 10:22:14;;;;;;;12.90;11.57;;;;;;;16.97;100.00;96009.94;5137776;27;20021;-66
2023/05/24 10:24:45;;;;;;;11.88;10.90;;;;;;;17.03;100.00;95995.97;5136070;27;20024;-66
2023/05/24 10:27:17;;;;;;;13.45;12.07;;;;;;;17.22;100.00;95997.31;5123792;27;20020;-66
2023/05/24 10:29:54;;;;;;;12.35;11.30;;;;;;;17.40;100.00;95993.56;5129346;27;20068;-65
2023/05/24 10:32:21;;;;;;;12.18;11.05;;;;;;;17.47;100.00;95990.00;5138721;27;20028;-66
2023/05/24 10:34:49;;;;;;;11.88;10.88;;;;;;;17.59;100.00;95982.44;5134837;27;20022;-66
2023/05/24 10:37:16;;;;;;;12.93;10.43;;;;;;;17.81;100.00;95982.59;5143794;27;20016;-66
2023/05/24 10:39:42;;;;;;;11.68;10.70;;;;;;;18.13;100.00;95972.66;5125297;27;20034;-66
2023/05/24 10:42:08;;;;;;;13.82;11.48;;;;;;;18.36;100.00;95971.75;5136069;27;20027;-66
2023/05/24 10:44:33;;;;;;;12.52;11.48;;;;;;;18.38;100.00;95975.06;5112798;27;20031;-66
2023/05/24 10:47:10;;;;;;;13.60;12.50;;;;;;;18.51;100.00;95971.75;5134773;27;20048;-66
2023/05/24 10:49:38;;;;;;;15.38;13.77;;;;;;;18.69;100.00;95967.88;5123637;27;20027;-66
2023/05/24 10:52:12;;;;;;;13.10;11.85;;;;;;;18.84;100.00;95957.97;5103004;28;20026;-66
2023/05/24 10:54:38;;;;;;;11.55;10.57;;;;;;;19.06;100.00;95963.38;5125897;27;20053;-67
2023/05/24 10:57:05;;;;;;;12.57;11.57;;;;;;;19.03;100.00;95961.09;5118859;28;20603;-66
2023/05/24 10:59:38;;;;;;;13.30;12.10;;;;;;;18.87;100.00;95959.47;5127914;27;20027;-66
2023/05/24 11:02:12;;;;;;;12.90;11.63;;;;;;;18.92;100.00;95966.91;5117419;27;20098;-66
2023/05/24 11:04:45;;;;;;;12.47;11.40;;;;;;;18.92;100.00;95956.22;5128312;27;20077;-66
2023/05/24 11:07:13;;;;;;;12.18;10.98;;;;;;;18.76;100.00;95958.09;5117493;27;20011;-66
2023/05/24 11:09:45;;;;;;;13.80;10.52;;;;;;;18.75;100.00;95961.78;5117974;28;20045;-66
2023/05/24 11:12:19;;;;;;;11.40;10.38;;;;;;;18.77;100.00;95967.75;5121843;27;20394;-66